KINW

Winslow-Lindbergh Regional Airport

Winslow, Arizona, USA
METAR KINW 160956Z AUTO 12008KT 10SM CLR M06/M16 A2999 RMK AO2 SLP157 T10561161
Observed Flight Rules
Dec-16 @ 09:56 UTC (an hour ago) Visual Flight Rules
Wind Visibility Clouds
120° at 8 knots 10 miles
  • Clear skies
Temperatures Readings
Current -6°C / 21°F
Dewpoint -16°C / 3°F
Humidity 45%
Altimeter 29.99" Hg
Pressure 1015.7 hPa
Elevation 1490
METAR KINW 160956Z AUTO 12008KT 10SM CLR M06/M16 A2999 RMK AO2 SLP157 T10561161
Observed Flight Rules
Dec-16 @ 09:56 UTC
(an hour ago)
VFR
Wind Visibility
120° at 8 knots 10 miles
Clouds
  • Clear skies
Temperature Dewpoint
-6°C / 21°F -16°C / 3°F
Humidity Altimeter Pressure
45% 29.99" Hg 1015.7 hPa